Cumari, Brazil
Current Conditions -  °F | °C
As of 2:00 PM on Friday 24 Oct 2014 (Local Time) from SBUL Reporting Station
Clear Clear  
Wind Chill: 30°   Ceiling: Unl
Heat Index: 30°   Visibility: 6mi
Dew Point: 12°   Wind: 7mph
Humidity: 33%   Direction: NA
Pressure: 30.03"   Gusts: NA
Location:  18.26°S, 48.15°W
Report Text: SBUL 241600Z VRB06KT CAVOK 30/12 Q1017
Loading
Personal Weather Stations






























Interactive Weather Map
Tropical Storm Tracking
New forecast layout! Learn more

10-Day Weather Forecast

Advertisements
Track Severe Weather on mobile